sensor_id;sensor_type;location;lat;lon;timestamp;P1;durP1;ratioP1;P2;durP2;ratioP2
70707;SDS011;58277;47.316;18.908;2023-02-19T00:01:16;6.50;;;3.20;;
70707;SDS011;58277;47.316;18.908;2023-02-19T00:03:46;7.20;;;3.50;;
70707;SDS011;58277;47.316;18.908;2023-02-19T00:06:13;6.20;;;3.13;;
70707;SDS011;58277;47.316;18.908;2023-02-19T00:08:37;7.60;;;3.38;;
70707;SDS011;58277;47.316;18.908;2023-02-19T00:11:21;6.30;;;3.38;;
70707;SDS011;58277;47.316;18.908;2023-02-19T00:13:44;7.95;;;3.80;;
70707;SDS011;58277;47.316;18.908;2023-02-19T00:16:15;7.63;;;3.50;;
70707;SDS011;58277;47.316;18.908;2023-02-19T00:18:39;8.77;;;3.40;;
70707;SDS011;58277;47.316;18.908;2023-02-19T00:21:03;7.90;;;3.65;;
70707;SDS011;58277;47.316;18.908;2023-02-19T00:23:26;7.25;;;3.50;;
70707;SDS011;58277;47.316;18.908;2023-02-19T00:25:49;6.40;;;3.45;;
70707;SDS011;58277;47.316;18.908;2023-02-19T00:28:11;7.10;;;3.67;;
70707;SDS011;58277;47.316;18.908;2023-02-19T00:30:34;7.20;;;3.22;;
70707;SDS011;58277;47.316;18.908;2023-02-19T00:32:57;8.07;;;3.58;;
70707;SDS011;58277;47.316;18.908;2023-02-19T00:35:20;6.47;;;3.30;;
70707;SDS011;58277;47.316;18.908;2023-02-19T00:37:43;7.47;;;3.28;;
70707;SDS011;58277;47.316;18.908;2023-02-19T00:40:05;6.07;;;2.97;;
70707;SDS011;58277;47.316;18.908;2023-02-19T00:42:28;6.07;;;3.30;;
70707;SDS011;58277;47.316;18.908;2023-02-19T00:44:51;5.97;;;2.83;;
70707;SDS011;58277;47.316;18.908;2023-02-19T00:47:14;5.72;;;2.90;;
70707;SDS011;58277;47.316;18.908;2023-02-19T00:49:37;5.00;;;2.75;;
70707;SDS011;58277;47.316;18.908;2023-02-19T00:51:59;5.70;;;2.80;;
70707;SDS011;58277;47.316;18.908;2023-02-19T00:54:23;7.18;;;2.97;;
70707;SDS011;58277;47.316;18.908;2023-02-19T00:56:46;7.25;;;3.10;;
70707;SDS011;58277;47.316;18.908;2023-02-19T00:59:09;6.22;;;2.97;;
70707;SDS011;58277;47.316;18.908;2023-02-19T01:01:32;5.68;;;3.00;;
70707;SDS011;58277;47.316;18.908;2023-02-19T01:03:55;6.03;;;2.57;;
70707;SDS011;58277;47.316;18.908;2023-02-19T01:06:18;6.07;;;2.60;;
70707;SDS011;58277;47.316;18.908;2023-02-19T01:08:42;5.35;;;3.10;;
70707;SDS011;58277;47.316;18.908;2023-02-19T01:11:05;5.90;;;2.80;;
70707;SDS011;58277;47.316;18.908;2023-02-19T01:13:29;6.70;;;3.13;;
70707;SDS011;58277;47.316;18.908;2023-02-19T01:15:53;5.30;;;2.90;;
70707;SDS011;58277;47.316;18.908;2023-02-19T01:18:16;8.05;;;3.20;;
70707;SDS011;58277;47.316;18.908;2023-02-19T01:20:43;6.63;;;2.90;;
70707;SDS011;58277;47.316;18.908;2023-02-19T01:23:06;6.47;;;2.80;;
70707;SDS011;58277;47.316;18.908;2023-02-19T01:25:29;5.15;;;3.00;;
70707;SDS011;58277;47.316;18.908;2023-02-19T01:27:52;5.20;;;3.03;;
70707;SDS011;58277;47.316;18.908;2023-02-19T01:30:15;4.88;;;2.60;;
70707;SDS011;58277;47.316;18.908;2023-02-19T01:32:39;5.55;;;2.72;;
70707;SDS011;58277;47.316;18.908;2023-02-19T01:35:02;6.20;;;2.58;;
70707;SDS011;58277;47.316;18.908;2023-02-19T01:37:25;5.22;;;2.70;;
70707;SDS011;58277;47.316;18.908;2023-02-19T01:39:49;5.40;;;2.60;;
70707;SDS011;58277;47.316;18.908;2023-02-19T01:42:14;5.25;;;3.10;;
70707;SDS011;58277;47.316;18.908;2023-02-19T01:47:00;5.50;;;3.00;;
70707;SDS011;58277;47.316;18.908;2023-02-19T01:49:24;6.15;;;3.28;;
70707;SDS011;58277;47.316;18.908;2023-02-19T01:52:10;6.90;;;3.37;;
70707;SDS011;58277;47.316;18.908;2023-02-19T01:54:55;7.70;;;3.67;;
70707;SDS011;58277;47.316;18.908;2023-02-19T01:57:19;7.13;;;3.17;;
70707;SDS011;58277;47.316;18.908;2023-02-19T01:59:54;6.38;;;3.40;;
70707;SDS011;58277;47.316;18.908;2023-02-19T02:02:20;5.72;;;3.08;;
70707;SDS011;58277;47.316;18.908;2023-02-19T02:04:46;5.87;;;3.00;;
70707;SDS011;58277;47.316;18.908;2023-02-19T02:07:09;6.32;;;3.00;;
70707;SDS011;58277;47.316;18.908;2023-02-19T02:09:51;6.25;;;3.50;;
70707;SDS011;58277;47.316;18.908;2023-02-19T02:12:33;5.22;;;2.65;;
70707;SDS011;58277;47.316;18.908;2023-02-19T02:14:56;6.22;;;2.80;;
70707;SDS011;58277;47.316;18.908;2023-02-19T02:17:19;4.60;;;2.33;;
70707;SDS011;58277;47.316;18.908;2023-02-19T02:30:38;3.13;;;1.70;;
70707;SDS011;58277;47.316;18.908;2023-02-19T02:38:19;3.38;;;1.60;;
70707;SDS011;58277;47.316;18.908;2023-02-19T02:40:46;3.65;;;1.67;;
70707;SDS011;58277;47.316;18.908;2023-02-19T02:43:10;2.80;;;1.33;;
70707;SDS011;58277;47.316;18.908;2023-02-19T02:45:33;2.35;;;1.20;;
70707;SDS011;58277;47.316;18.908;2023-02-19T02:50:49;3.03;;;0.90;;
70707;SDS011;58277;47.316;18.908;2023-02-19T02:53:20;2.50;;;1.30;;
70707;SDS011;58277;47.316;18.908;2023-02-19T02:56:08;1.70;;;0.80;;
70707;SDS011;58277;47.316;18.908;2023-02-19T02:58:32;1.50;;;0.88;;
70707;SDS011;58277;47.316;18.908;2023-02-19T03:01:20;3.60;;;0.80;;
70707;SDS011;58277;47.316;18.908;2023-02-19T03:04:17;1.55;;;0.88;;
70707;SDS011;58277;47.316;18.908;2023-02-19T03:06:51;1.30;;;0.70;;
70707;SDS011;58277;47.316;18.908;2023-02-19T03:09:25;2.23;;;0.80;;
70707;SDS011;58277;47.316;18.908;2023-02-19T03:11:53;1.10;;;0.60;;
70707;SDS011;58277;47.316;18.908;2023-02-19T03:14:38;1.33;;;0.77;;
70707;SDS011;58277;47.316;18.908;2023-02-19T03:17:25;1.35;;;0.73;;
70707;SDS011;58277;47.316;18.908;2023-02-19T03:20:16;1.30;;;0.65;;
70707;SDS011;58277;47.316;18.908;2023-02-19T03:22:42;1.40;;;0.80;;
70707;SDS011;58277;47.316;18.908;2023-02-19T03:25:14;1.27;;;0.70;;
70707;SDS011;58277;47.316;18.908;2023-02-19T03:28:01;1.50;;;0.70;;
70707;SDS011;58277;47.316;18.908;2023-02-19T03:30:29;2.00;;;0.80;;
70707;SDS011;58277;47.316;18.908;2023-02-19T03:32:57;1.88;;;0.80;;
70707;SDS011;58277;47.316;18.908;2023-02-19T03:35:24;1.50;;;0.67;;
70707;SDS011;58277;47.316;18.908;2023-02-19T03:40:20;1.30;;;0.70;;
70707;SDS011;58277;47.316;18.908;2023-02-19T03:45:17;0.90;;;0.68;;
70707;SDS011;58277;47.316;18.908;2023-02-19T03:50:35;2.95;;;1.00;;
70707;SDS011;58277;47.316;18.908;2023-02-19T03:56:10;1.30;;;0.70;;
70707;SDS011;58277;47.316;18.908;2023-02-19T03:58:47;1.40;;;0.80;;
70707;SDS011;58277;47.316;18.908;2023-02-19T04:01:27;1.07;;;0.60;;
70707;SDS011;58277;47.316;18.908;2023-02-19T04:04:06;0.95;;;0.52;;
70707;SDS011;58277;47.316;18.908;2023-02-19T04:06:35;1.05;;;0.68;;
70707;SDS011;58277;47.316;18.908;2023-02-19T04:09:01;1.35;;;0.45;;
70707;SDS011;58277;47.316;18.908;2023-02-19T04:11:26;1.00;;;0.70;;
70707;SDS011;58277;47.316;18.908;2023-02-19T04:16:26;1.35;;;0.80;;
70707;SDS011;58277;47.316;18.908;2023-02-19T04:18:51;1.33;;;0.60;;
70707;SDS011;58277;47.316;18.908;2023-02-19T04:21:16;1.20;;;0.60;;
70707;SDS011;58277;47.316;18.908;2023-02-19T04:23:42;1.60;;;0.60;;
70707;SDS011;58277;47.316;18.908;2023-02-19T04:26:06;1.47;;;0.80;;
70707;SDS011;58277;47.316;18.908;2023-02-19T04:28:30;1.10;;;0.70;;
70707;SDS011;58277;47.316;18.908;2023-02-19T04:30:53;1.73;;;0.88;;
70707;SDS011;58277;47.316;18.908;2023-02-19T04:33:15;1.33;;;0.80;;
70707;SDS011;58277;47.316;18.908;2023-02-19T04:35:38;1.60;;;0.80;;
70707;SDS011;58277;47.316;18.908;2023-02-19T04:38:01;1.53;;;0.80;;
70707;SDS011;58277;47.316;18.908;2023-02-19T04:40:24;1.70;;;1.02;;
70707;SDS011;58277;47.316;18.908;2023-02-19T04:42:46;1.83;;;0.90;;
70707;SDS011;58277;47.316;18.908;2023-02-19T04:45:09;1.58;;;0.98;;
70707;SDS011;58277;47.316;18.908;2023-02-19T04:47:31;2.28;;;1.20;;
70707;SDS011;58277;47.316;18.908;2023-02-19T04:49:54;1.70;;;1.03;;
70707;SDS011;58277;47.316;18.908;2023-02-19T04:52:16;1.88;;;1.00;;
70707;SDS011;58277;47.316;18.908;2023-02-19T04:54:39;2.45;;;1.23;;
70707;SDS011;58277;47.316;18.908;2023-02-19T04:57:02;2.20;;;1.15;;
70707;SDS011;58277;47.316;18.908;2023-02-19T04:59:26;2.35;;;1.55;;
70707;SDS011;58277;47.316;18.908;2023-02-19T05:01:49;2.87;;;1.70;;
70707;SDS011;58277;47.316;18.908;2023-02-19T05:04:12;3.17;;;1.80;;
70707;SDS011;58277;47.316;18.908;2023-02-19T05:06:35;3.58;;;1.88;;
70707;SDS011;58277;47.316;18.908;2023-02-19T05:08:57;4.50;;;2.17;;
70707;SDS011;58277;47.316;18.908;2023-02-19T05:11:20;3.95;;;2.22;;
70707;SDS011;58277;47.316;18.908;2023-02-19T05:13:44;3.30;;;2.03;;
70707;SDS011;58277;47.316;18.908;2023-02-19T05:16:10;4.38;;;2.20;;
70707;SDS011;58277;47.316;18.908;2023-02-19T05:18:35;4.10;;;2.47;;
70707;SDS011;58277;47.316;18.908;2023-02-19T05:20:58;6.35;;;2.58;;
70707;SDS011;58277;47.316;18.908;2023-02-19T05:23:21;4.53;;;2.55;;
70707;SDS011;58277;47.316;18.908;2023-02-19T05:25:43;5.10;;;2.63;;
70707;SDS011;58277;47.316;18.908;2023-02-19T05:28:06;5.55;;;3.05;;
70707;SDS011;58277;47.316;18.908;2023-02-19T05:30:40;5.45;;;2.97;;
70707;SDS011;58277;47.316;18.908;2023-02-19T05:33:03;7.15;;;3.30;;
70707;SDS011;58277;47.316;18.908;2023-02-19T05:35:26;5.95;;;3.20;;
70707;SDS011;58277;47.316;18.908;2023-02-19T05:37:49;6.23;;;3.40;;
70707;SDS011;58277;47.316;18.908;2023-02-19T05:40:12;8.13;;;3.53;;
70707;SDS011;58277;47.316;18.908;2023-02-19T05:42:35;12.75;;;5.88;;
70707;SDS011;58277;47.316;18.908;2023-02-19T05:44:57;15.20;;;6.18;;
70707;SDS011;58277;47.316;18.908;2023-02-19T05:47:20;18.15;;;7.70;;
70707;SDS011;58277;47.316;18.908;2023-02-19T05:49:43;19.30;;;8.13;;
70707;SDS011;58277;47.316;18.908;2023-02-19T05:52:06;19.63;;;8.45;;
70707;SDS011;58277;47.316;18.908;2023-02-19T05:54:29;23.17;;;9.13;;
70707;SDS011;58277;47.316;18.908;2023-02-19T05:56:52;21.65;;;9.35;;
70707;SDS011;58277;47.316;18.908;2023-02-19T05:59:19;26.35;;;10.88;;
70707;SDS011;58277;47.316;18.908;2023-02-19T06:01:43;27.53;;;11.33;;
70707;SDS011;58277;47.316;18.908;2023-02-19T06:04:08;29.90;;;11.18;;
70707;SDS011;58277;47.316;18.908;2023-02-19T06:06:32;31.02;;;12.35;;
70707;SDS011;58277;47.316;18.908;2023-02-19T06:08:55;29.95;;;11.52;;
70707;SDS011;58277;47.316;18.908;2023-02-19T06:11:18;32.05;;;12.35;;
70707;SDS011;58277;47.316;18.908;2023-02-19T06:13:42;29.60;;;12.07;;
70707;SDS011;58277;47.316;18.908;2023-02-19T06:16:05;33.08;;;13.13;;
70707;SDS011;58277;47.316;18.908;2023-02-19T06:18:29;33.63;;;13.23;;
70707;SDS011;58277;47.316;18.908;2023-02-19T06:20:51;33.88;;;13.13;;
70707;SDS011;58277;47.316;18.908;2023-02-19T06:23:14;33.65;;;14.15;;
70707;SDS011;58277;47.316;18.908;2023-02-19T06:25:37;31.83;;;13.07;;
70707;SDS011;58277;47.316;18.908;2023-02-19T06:27:59;35.38;;;13.93;;
70707;SDS011;58277;47.316;18.908;2023-02-19T06:30:22;33.25;;;13.85;;
70707;SDS011;58277;47.316;18.908;2023-02-19T06:32:45;33.33;;;13.80;;
70707;SDS011;58277;47.316;18.908;2023-02-19T06:35:07;36.08;;;14.05;;
70707;SDS011;58277;47.316;18.908;2023-02-19T06:37:30;32.97;;;12.57;;
70707;SDS011;58277;47.316;18.908;2023-02-19T06:39:52;34.40;;;13.70;;
70707;SDS011;58277;47.316;18.908;2023-02-19T06:42:15;34.25;;;13.05;;
70707;SDS011;58277;47.316;18.908;2023-02-19T06:44:38;30.45;;;12.68;;
70707;SDS011;58277;47.316;18.908;2023-02-19T06:47:00;31.30;;;12.95;;
70707;SDS011;58277;47.316;18.908;2023-02-19T06:49:23;33.63;;;13.23;;
70707;SDS011;58277;47.316;18.908;2023-02-19T06:51:46;32.80;;;13.45;;
70707;SDS011;58277;47.316;18.908;2023-02-19T06:54:09;32.95;;;13.23;;
70707;SDS011;58277;47.316;18.908;2023-02-19T06:56:32;29.80;;;12.88;;
70707;SDS011;58277;47.316;18.908;2023-02-19T06:58:58;32.28;;;13.15;;
70707;SDS011;58277;47.316;18.908;2023-02-19T07:01:22;31.17;;;13.70;;
70707;SDS011;58277;47.316;18.908;2023-02-19T07:03:45;29.70;;;12.35;;
70707;SDS011;58277;47.316;18.908;2023-02-19T07:06:08;31.55;;;12.60;;
70707;SDS011;58277;47.316;18.908;2023-02-19T07:08:31;34.20;;;13.60;;
70707;SDS011;58277;47.316;18.908;2023-02-19T07:10:54;30.52;;;13.32;;
70707;SDS011;58277;47.316;18.908;2023-02-19T07:13:18;31.73;;;12.87;;
70707;SDS011;58277;47.316;18.908;2023-02-19T07:15:41;28.27;;;12.60;;
70707;SDS011;58277;47.316;18.908;2023-02-19T07:18:04;30.52;;;13.27;;
70707;SDS011;58277;47.316;18.908;2023-02-19T07:20:28;30.42;;;13.18;;
70707;SDS011;58277;47.316;18.908;2023-02-19T07:22:51;33.25;;;13.00;;
70707;SDS011;58277;47.316;18.908;2023-02-19T07:25:14;30.87;;;12.80;;
70707;SDS011;58277;47.316;18.908;2023-02-19T07:27:36;33.20;;;13.15;;
70707;SDS011;58277;47.316;18.908;2023-02-19T07:29:59;30.60;;;13.85;;
70707;SDS011;58277;47.316;18.908;2023-02-19T07:32:23;29.92;;;12.63;;
70707;SDS011;58277;47.316;18.908;2023-02-19T07:34:46;30.75;;;13.32;;
70707;SDS011;58277;47.316;18.908;2023-02-19T07:37:29;29.37;;;12.97;;
70707;SDS011;58277;47.316;18.908;2023-02-19T07:39:52;31.27;;;13.55;;
70707;SDS011;58277;47.316;18.908;2023-02-19T07:42:15;31.25;;;12.88;;
70707;SDS011;58277;47.316;18.908;2023-02-19T07:44:38;31.95;;;13.48;;
70707;SDS011;58277;47.316;18.908;2023-02-19T07:47:01;30.98;;;13.60;;
70707;SDS011;58277;47.316;18.908;2023-02-19T07:49:23;31.03;;;13.47;;
70707;SDS011;58277;47.316;18.908;2023-02-19T07:51:46;33.97;;;13.65;;
70707;SDS011;58277;47.316;18.908;2023-02-19T07:54:09;33.60;;;13.95;;
70707;SDS011;58277;47.316;18.908;2023-02-19T07:56:32;32.30;;;13.55;;
70707;SDS011;58277;47.316;18.908;2023-02-19T07:58:55;33.53;;;13.90;;
70707;SDS011;58277;47.316;18.908;2023-02-19T08:01:19;34.20;;;13.43;;
70707;SDS011;58277;47.316;18.908;2023-02-19T08:04:03;33.00;;;13.63;;
70707;SDS011;58277;47.316;18.908;2023-02-19T08:06:26;36.28;;;15.27;;
70707;SDS011;58277;47.316;18.908;2023-02-19T08:08:48;33.22;;;13.95;;
70707;SDS011;58277;47.316;18.908;2023-02-19T08:11:11;35.58;;;14.73;;
70707;SDS011;58277;47.316;18.908;2023-02-19T08:13:52;34.67;;;13.90;;
70707;SDS011;58277;47.316;18.908;2023-02-19T08:16:15;33.40;;;13.43;;
70707;SDS011;58277;47.316;18.908;2023-02-19T08:18:58;35.80;;;13.90;;
70707;SDS011;58277;47.316;18.908;2023-02-19T08:21:21;32.88;;;14.20;;
70707;SDS011;58277;47.316;18.908;2023-02-19T08:23:43;36.10;;;14.23;;
70707;SDS011;58277;47.316;18.908;2023-02-19T08:26:07;35.27;;;13.97;;
70707;SDS011;58277;47.316;18.908;2023-02-19T08:28:31;33.88;;;14.07;;
70707;SDS011;58277;47.316;18.908;2023-02-19T08:30:57;38.15;;;14.60;;
70707;SDS011;58277;47.316;18.908;2023-02-19T08:33:22;32.72;;;13.13;;
70707;SDS011;58277;47.316;18.908;2023-02-19T08:35:45;33.85;;;13.65;;
70707;SDS011;58277;47.316;18.908;2023-02-19T08:38:08;32.03;;;13.73;;
70707;SDS011;58277;47.316;18.908;2023-02-19T08:40:32;33.75;;;13.63;;
70707;SDS011;58277;47.316;18.908;2023-02-19T08:43:00;36.50;;;14.70;;
70707;SDS011;58277;47.316;18.908;2023-02-19T08:45:31;36.22;;;14.73;;
70707;SDS011;58277;47.316;18.908;2023-02-19T08:47:54;36.92;;;14.45;;
70707;SDS011;58277;47.316;18.908;2023-02-19T08:50:16;34.13;;;13.87;;
70707;SDS011;58277;47.316;18.908;2023-02-19T08:52:39;34.00;;;14.15;;
70707;SDS011;58277;47.316;18.908;2023-02-19T08:55:03;35.70;;;14.63;;
70707;SDS011;58277;47.316;18.908;2023-02-19T08:57:27;36.05;;;15.18;;
70707;SDS011;58277;47.316;18.908;2023-02-19T08:59:50;35.42;;;14.98;;
70707;SDS011;58277;47.316;18.908;2023-02-19T09:02:13;35.27;;;14.40;;
70707;SDS011;58277;47.316;18.908;2023-02-19T09:04:35;34.83;;;15.07;;
70707;SDS011;58277;47.316;18.908;2023-02-19T09:06:59;37.17;;;14.93;;
70707;SDS011;58277;47.316;18.908;2023-02-19T09:09:22;36.30;;;14.23;;
70707;SDS011;58277;47.316;18.908;2023-02-19T09:11:44;40.40;;;15.82;;
70707;SDS011;58277;47.316;18.908;2023-02-19T09:14:10;33.77;;;14.07;;
70707;SDS011;58277;47.316;18.908;2023-02-19T09:16:33;34.90;;;14.75;;
70707;SDS011;58277;47.316;18.908;2023-02-19T09:18:58;35.90;;;14.98;;
70707;SDS011;58277;47.316;18.908;2023-02-19T09:21:20;35.95;;;14.80;;
70707;SDS011;58277;47.316;18.908;2023-02-19T09:23:43;35.22;;;14.98;;
70707;SDS011;58277;47.316;18.908;2023-02-19T09:26:06;33.50;;;14.43;;
70707;SDS011;58277;47.316;18.908;2023-02-19T09:28:31;34.88;;;14.30;;
70707;SDS011;58277;47.316;18.908;2023-02-19T09:30:54;34.35;;;14.88;;
70707;SDS011;58277;47.316;18.908;2023-02-19T09:33:17;34.50;;;14.52;;
70707;SDS011;58277;47.316;18.908;2023-02-19T09:35:39;36.65;;;14.98;;
70707;SDS011;58277;47.316;18.908;2023-02-19T09:38:02;36.33;;;14.30;;
70707;SDS011;58277;47.316;18.908;2023-02-19T09:40:25;35.40;;;14.35;;
70707;SDS011;58277;47.316;18.908;2023-02-19T09:42:48;38.38;;;15.75;;
70707;SDS011;58277;47.316;18.908;2023-02-19T09:45:14;35.70;;;14.95;;
70707;SDS011;58277;47.316;18.908;2023-02-19T09:47:43;35.35;;;15.00;;
70707;SDS011;58277;47.316;18.908;2023-02-19T09:50:06;36.70;;;14.93;;
70707;SDS011;58277;47.316;18.908;2023-02-19T09:52:31;35.30;;;14.85;;
70707;SDS011;58277;47.316;18.908;2023-02-19T09:55:03;38.10;;;15.65;;
70707;SDS011;58277;47.316;18.908;2023-02-19T09:57:35;35.22;;;14.95;;
70707;SDS011;58277;47.316;18.908;2023-02-19T10:00:06;39.00;;;15.43;;
70707;SDS011;58277;47.316;18.908;2023-02-19T10:02:42;35.73;;;15.10;;
70707;SDS011;58277;47.316;18.908;2023-02-19T10:05:14;37.97;;;15.05;;
70707;SDS011;58277;47.316;18.908;2023-02-19T10:07:42;38.75;;;16.02;;
70707;SDS011;58277;47.316;18.908;2023-02-19T10:12:35;37.13;;;15.70;;
70707;SDS011;58277;47.316;18.908;2023-02-19T10:15:00;37.37;;;14.90;;
70707;SDS011;58277;47.316;18.908;2023-02-19T10:17:31;34.60;;;13.93;;
70707;SDS011;58277;47.316;18.908;2023-02-19T10:19:56;35.85;;;14.85;;
70707;SDS011;58277;47.316;18.908;2023-02-19T10:22:19;35.38;;;14.77;;
70707;SDS011;58277;47.316;18.908;2023-02-19T10:27:46;31.87;;;13.30;;
70707;SDS011;58277;47.316;18.908;2023-02-19T10:30:28;32.38;;;13.15;;
70707;SDS011;58277;47.316;18.908;2023-02-19T10:33:00;29.30;;;12.60;;
70707;SDS011;58277;47.316;18.908;2023-02-19T10:35:23;26.88;;;11.50;;
70707;SDS011;58277;47.316;18.908;2023-02-19T10:37:47;26.88;;;11.65;;
70707;SDS011;58277;47.316;18.908;2023-02-19T10:40:17;25.27;;;11.00;;
70707;SDS011;58277;47.316;18.908;2023-02-19T10:42:46;27.60;;;11.15;;
70707;SDS011;58277;47.316;18.908;2023-02-19T10:45:15;26.52;;;11.82;;
70707;SDS011;58277;47.316;18.908;2023-02-19T10:47:44;25.38;;;11.50;;
70707;SDS011;58277;47.316;18.908;2023-02-19T10:50:19;26.90;;;12.07;;
70707;SDS011;58277;47.316;18.908;2023-02-19T10:52:49;26.20;;;11.90;;
70707;SDS011;58277;47.316;18.908;2023-02-19T10:55:23;27.42;;;11.57;;
70707;SDS011;58277;47.316;18.908;2023-02-19T10:57:49;27.40;;;12.00;;
70707;SDS011;58277;47.316;18.908;2023-02-19T11:02:38;27.10;;;12.05;;
70707;SDS011;58277;47.316;18.908;2023-02-19T11:07:24;25.05;;;11.00;;
70707;SDS011;58277;47.316;18.908;2023-02-19T11:09:48;20.52;;;9.82;;
70707;SDS011;58277;47.316;18.908;2023-02-19T11:12:22;18.48;;;8.73;;
70707;SDS011;58277;47.316;18.908;2023-02-19T11:14:49;18.98;;;8.90;;
70707;SDS011;58277;47.316;18.908;2023-02-19T11:17:26;16.73;;;8.37;;
70707;SDS011;58277;47.316;18.908;2023-02-19T11:19:50;18.30;;;8.82;;
70707;SDS011;58277;47.316;18.908;2023-02-19T11:22:37;19.40;;;8.88;;
70707;SDS011;58277;47.316;18.908;2023-02-19T11:25:20;21.45;;;9.30;;
70707;SDS011;58277;47.316;18.908;2023-02-19T11:32:56;19.25;;;8.63;;
70707;SDS011;58277;47.316;18.908;2023-02-19T11:35:34;18.25;;;8.90;;
70707;SDS011;58277;47.316;18.908;2023-02-19T11:37:57;11.55;;;5.38;;
70707;SDS011;58277;47.316;18.908;2023-02-19T11:40:25;8.88;;;4.40;;
70707;SDS011;58277;47.316;18.908;2023-02-19T11:46:05;6.85;;;3.50;;
70707;SDS011;58277;47.316;18.908;2023-02-19T11:48:52;6.97;;;3.22;;
70707;SDS011;58277;47.316;18.908;2023-02-19T11:57:35;3.60;;;1.70;;
70707;SDS011;58277;47.316;18.908;2023-02-19T11:59:47;4.65;;;2.00;;
70707;SDS011;58277;47.316;18.908;2023-02-19T12:02:41;3.83;;;1.88;;
70707;SDS011;58277;47.316;18.908;2023-02-19T12:33:05;2.10;;;1.05;;
70707;SDS011;58277;47.316;18.908;2023-02-19T12:43:34;2.53;;;1.20;;
70707;SDS011;58277;47.316;18.908;2023-02-19T12:46:08;1.73;;;0.90;;
70707;SDS011;58277;47.316;18.908;2023-02-19T12:48:42;1.60;;;0.95;;
70707;SDS011;58277;47.316;18.908;2023-02-19T12:54:22;3.05;;;1.27;;
70707;SDS011;58277;47.316;18.908;2023-02-19T12:57:01;1.90;;;1.20;;
70707;SDS011;58277;47.316;18.908;2023-02-19T13:02:19;2.92;;;1.30;;
70707;SDS011;58277;47.316;18.908;2023-02-19T13:07:44;2.50;;;1.30;;
70707;SDS011;58277;47.316;18.908;2023-02-19T13:10:38;2.60;;;1.30;;
70707;SDS011;58277;47.316;18.908;2023-02-19T13:13:27;2.72;;;1.40;;
70707;SDS011;58277;47.316;18.908;2023-02-19T13:15:57;2.83;;;1.40;;
70707;SDS011;58277;47.316;18.908;2023-02-19T13:18:27;3.70;;;1.10;;
70707;SDS011;58277;47.316;18.908;2023-02-19T13:20:53;2.90;;;1.40;;
70707;SDS011;58277;47.316;18.908;2023-02-19T13:26:04;2.70;;;1.13;;
70707;SDS011;58277;47.316;18.908;2023-02-19T13:28:40;1.73;;;1.00;;
70707;SDS011;58277;47.316;18.908;2023-02-19T13:33:38;2.58;;;1.35;;
70707;SDS011;58277;47.316;18.908;2023-02-19T13:36:33;2.25;;;1.35;;
70707;SDS011;58277;47.316;18.908;2023-02-19T13:38:57;2.55;;;1.30;;
70707;SDS011;58277;47.316;18.908;2023-02-19T13:43:55;4.17;;;2.00;;
70707;SDS011;58277;47.316;18.908;2023-02-19T13:46:22;1.75;;;1.20;;
70707;SDS011;58277;47.316;18.908;2023-02-19T13:48:46;1.70;;;1.10;;
70707;SDS011;58277;47.316;18.908;2023-02-19T13:58:57;1.00;;;0.60;;
70707;SDS011;58277;47.316;18.908;2023-02-19T14:14:37;1.95;;;0.85;;
70707;SDS011;58277;47.316;18.908;2023-02-19T14:25:08;2.50;;;0.60;;
70707;SDS011;58277;47.316;18.908;2023-02-19T14:27:46;2.10;;;0.50;;
70707;SDS011;58277;47.316;18.908;2023-02-19T14:30:10;3.35;;;0.88;;
70707;SDS011;58277;47.316;18.908;2023-02-19T14:32:35;4.40;;;1.55;;
70707;SDS011;58277;47.316;18.908;2023-02-19T14:34:57;4.07;;;0.97;;
70707;SDS011;58277;47.316;18.908;2023-02-19T14:37:21;2.78;;;0.77;;
70707;SDS011;58277;47.316;18.908;2023-02-19T14:39:44;0.93;;;0.50;;
70707;SDS011;58277;47.316;18.908;2023-02-19T14:42:22;2.10;;;0.65;;
70707;SDS011;58277;47.316;18.908;2023-02-19T14:44:55;0.98;;;0.55;;
70707;SDS011;58277;47.316;18.908;2023-02-19T14:47:22;2.00;;;0.80;;
70707;SDS011;58277;47.316;18.908;2023-02-19T14:52:37;2.05;;;0.80;;
70707;SDS011;58277;47.316;18.908;2023-02-19T14:57:43;2.75;;;1.00;;
70707;SDS011;58277;47.316;18.908;2023-02-19T15:00:43;1.97;;;0.80;;
70707;SDS011;58277;47.316;18.908;2023-02-19T15:02:59;3.75;;;1.00;;
70707;SDS011;58277;47.316;18.908;2023-02-19T15:05:25;3.05;;;1.15;;
70707;SDS011;58277;47.316;18.908;2023-02-19T15:07:49;1.25;;;0.73;;
70707;SDS011;58277;47.316;18.908;2023-02-19T15:10:15;1.63;;;0.90;;
70707;SDS011;58277;47.316;18.908;2023-02-19T15:15:23;2.80;;;0.90;;
70707;SDS011;58277;47.316;18.908;2023-02-19T15:17:51;2.63;;;1.20;;
70707;SDS011;58277;47.316;18.908;2023-02-19T15:20:16;2.67;;;1.13;;
70707;SDS011;58277;47.316;18.908;2023-02-19T15:22:41;2.08;;;1.10;;
70707;SDS011;58277;47.316;18.908;2023-02-19T15:25:05;3.10;;;1.40;;
70707;SDS011;58277;47.316;18.908;2023-02-19T15:27:28;3.90;;;1.38;;
70707;SDS011;58277;47.316;18.908;2023-02-19T15:29:53;4.22;;;1.60;;
70707;SDS011;58277;47.316;18.908;2023-02-19T15:32:17;3.30;;;1.40;;
70707;SDS011;58277;47.316;18.908;2023-02-19T15:34:51;2.55;;;1.35;;
70707;SDS011;58277;47.316;18.908;2023-02-19T15:37:18;3.43;;;1.50;;
70707;SDS011;58277;47.316;18.908;2023-02-19T15:39:45;3.95;;;2.00;;
70707;SDS011;58277;47.316;18.908;2023-02-19T15:42:15;3.83;;;1.90;;
70707;SDS011;58277;47.316;18.908;2023-02-19T15:44:46;4.00;;;2.00;;
70707;SDS011;58277;47.316;18.908;2023-02-19T15:49:57;2.20;;;1.20;;
70707;SDS011;58277;47.316;18.908;2023-02-19T15:53:13;2.33;;;0.95;;
70707;SDS011;58277;47.316;18.908;2023-02-19T16:00:38;5.60;;;1.60;;
70707;SDS011;58277;47.316;18.908;2023-02-19T16:03:07;4.83;;;2.03;;
70707;SDS011;58277;47.316;18.908;2023-02-19T16:05:39;5.15;;;1.63;;
70707;SDS011;58277;47.316;18.908;2023-02-19T16:08:16;5.50;;;1.48;;
70707;SDS011;58277;47.316;18.908;2023-02-19T16:10:51;4.03;;;1.67;;
70707;SDS011;58277;47.316;18.908;2023-02-19T16:13:21;4.03;;;1.42;;
70707;SDS011;58277;47.316;18.908;2023-02-19T16:15:45;3.40;;;1.50;;
70707;SDS011;58277;47.316;18.908;2023-02-19T16:18:22;3.05;;;0.93;;
70707;SDS011;58277;47.316;18.908;2023-02-19T16:20:45;2.38;;;0.85;;
70707;SDS011;58277;47.316;18.908;2023-02-19T16:23:12;1.90;;;0.70;;
70707;SDS011;58277;47.316;18.908;2023-02-19T16:25:40;1.77;;;0.70;;
70707;SDS011;58277;47.316;18.908;2023-02-19T16:28:13;1.83;;;0.70;;
70707;SDS011;58277;47.316;18.908;2023-02-19T16:30:43;2.72;;;0.88;;
70707;SDS011;58277;47.316;18.908;2023-02-19T16:35:57;2.25;;;1.10;;
70707;SDS011;58277;47.316;18.908;2023-02-19T16:38:37;2.72;;;1.27;;
70707;SDS011;58277;47.316;18.908;2023-02-19T16:41:03;3.17;;;1.20;;
70707;SDS011;58277;47.316;18.908;2023-02-19T16:43:40;2.13;;;1.10;;
70707;SDS011;58277;47.316;18.908;2023-02-19T16:46:05;2.92;;;1.60;;
70707;SDS011;58277;47.316;18.908;2023-02-19T16:48:30;2.50;;;1.30;;
70707;SDS011;58277;47.316;18.908;2023-02-19T16:50:53;2.47;;;1.45;;
70707;SDS011;58277;47.316;18.908;2023-02-19T16:53:19;2.70;;;1.50;;
70707;SDS011;58277;47.316;18.908;2023-02-19T16:55:46;3.20;;;1.60;;
70707;SDS011;58277;47.316;18.908;2023-02-19T16:58:10;3.63;;;1.50;;
70707;SDS011;58277;47.316;18.908;2023-02-19T17:00:32;2.88;;;1.38;;
70707;SDS011;58277;47.316;18.908;2023-02-19T17:02:56;2.90;;;1.50;;
70707;SDS011;58277;47.316;18.908;2023-02-19T17:05:21;3.80;;;1.63;;